Goya, Argentina
Current Conditions -  °F | °C
As of 7:00 AM on Sunday 25 Jan 2015 (Local Time) from SARE Reporting Station
Clear Clear  
Wind Chill: 72°   Ceiling: Unl
Heat Index: 72°   Visibility: 5mi
Dew Point: 70°   Wind: 5mph
Humidity: 94%   Direction: 20°NNE
Pressure: 29.83"   Gusts: NA
Location:  29.13°S, 59.27°W
Report Text: SARE 251000Z 02004KT 8000 NSC 22/21 Q1010
Loading
Personal Weather Stations






























Interactive Weather Map New forecast layout! Learn more

10-Day Weather Forecast

Advertisements
Track Severe Weather on mobile